Time;durP1;ratioP1;P1;durP2;ratioP2;P2;SDS_P1;SDS_P2;PMS_P1;PMS_P2;Temp;Humidity;BMP_temperature;BMP_pressure;BME280_temperature;BME280_humidity;BME280_pressure;Samples;Min_cycle;Max_cycle;Signal;HPM_P1;HPM_P2
2023/04/05 00:05:08;;;;;;;18.27;16.50;;;1.90;99.90;;;;;;2614748;54;20174;-75
2023/04/05 00:10:56;;;;;;;19.07;17.30;;;1.50;99.90;;;;;;2615077;54;20948;-74
2023/04/05 00:16:44;;;;;;;17.67;16.00;;;1.40;99.90;;;;;;2612913;54;20126;-75
2023/04/05 00:22:34;;;;;;;18.73;16.83;;;1.30;99.90;;;;;;2614132;54;20170;-74
2023/04/05 00:28:22;;;;;;;18.33;16.43;;;1.40;99.90;;;;;;2612600;39;20752;-75
2023/04/05 00:34:11;;;;;;;17.53;15.83;;;1.30;99.90;;;;;;2613315;54;20865;-74
2023/04/05 00:39:59;;;;;;;17.60;15.90;;;1.20;99.90;;;;;;2614482;54;20378;-74
2023/04/05 00:45:46;;;;;;;19.07;15.63;;;1.20;99.90;;;;;;2615216;39;20333;-74
2023/04/05 00:51:35;;;;;;;17.73;15.83;;;1.30;99.90;;;;;;2613536;54;20700;-74
2023/04/05 00:57:23;;;;;;;17.73;15.90;;;1.10;99.90;;;;;;2614461;54;20387;-74
2023/04/05 01:03:12;;;;;;;16.80;15.27;;;0.80;99.90;;;;;;2614606;54;20419;-74
2023/04/05 01:15:31;;;;;;;16.57;15.07;;;0.50;99.90;;;;;;2614517;54;20391;-74
2023/04/05 01:40:48;;;;;;;16.10;14.50;;;0.30;99.90;;;;;;2614724;54;20378;-75
2023/04/05 01:46:36;;;;;;;22.07;16.77;;;0.10;99.90;;;;;;2614108;54;20371;-74
2023/04/05 01:52:24;;;;;;;19.57;14.77;;;-0.10;99.90;;;;;;2613953;54;20150;-75
2023/04/05 01:58:11;;;;;;;18.87;14.77;;;-0.10;99.90;;;;;;2614687;46;20148;-75
2023/04/05 02:00:56;;;;;;;18.70;15.70;;;-0.20;99.90;;;;;;2613720;54;20431;-75
2023/04/05 02:03:23;;;;;;;16.47;14.80;;;-0.30;99.90;;;;;;2612410;54;20242;-74
2023/04/05 02:09:11;;;;;;;19.60;15.67;;;-0.40;99.90;;;;;;2613433;54;20413;-75
2023/04/05 02:14:58;;;;;;;18.17;15.10;;;-0.30;99.90;;;;;;2614007;54;20940;-75
2023/04/05 02:20:49;;;;;;;19.37;14.53;;;-0.20;99.90;;;;;;2615307;39;20653;-74
2023/04/05 02:26:37;;;;;;;20.17;15.53;;;-0.20;99.90;;;;;;2615038;39;20906;-74
2023/04/05 02:32:25;;;;;;;16.67;14.10;;;-0.30;99.90;;;;;;2614550;54;20146;-75
2023/04/05 02:38:13;;;;;;;19.90;15.70;;;-0.30;99.90;;;;;;2614418;54;20123;-74
2023/04/05 02:44:01;;;;;;;18.47;15.63;;;-0.50;99.90;;;;;;2614345;54;20171;-74
2023/04/05 02:49:49;;;;;;;18.90;16.20;;;-0.70;99.90;;;;;;2613644;54;20399;-74
2023/04/05 02:55:40;;;;;;;22.20;17.33;;;-0.80;99.90;;;;;;2614167;54;20130;-75
2023/04/05 03:01:29;;;;;;;27.13;16.83;;;-0.60;99.90;;;;;;2614897;39;20798;-74
2023/04/05 03:07:17;;;;;;;19.87;15.47;;;-0.70;99.90;;;;;;2612888;54;20436;-75
2023/04/05 03:13:04;;;;;;;19.93;16.23;;;-0.60;99.90;;;;;;2614754;39;20788;-75
2023/04/05 03:18:52;;;;;;;20.50;15.00;;;-0.70;99.90;;;;;;2614253;54;20122;-75
2023/04/05 03:28:51;;;;;;;22.80;18.07;;;-1.10;99.90;;;;;;2614352;54;20952;-75
2023/04/05 03:34:39;;;;;;;23.40;16.50;;;-1.20;99.90;;;;;;2615245;54;20956;-74
2023/04/05 03:40:27;;;;;;;18.77;15.90;;;-1.10;99.90;;;;;;2613784;54;20227;-74
2023/04/05 03:46:15;;;;;;;21.07;17.33;;;-1.10;99.90;;;;;;2614575;54;20130;-74
2023/04/05 03:52:03;;;;;;;28.73;18.10;;;-1.00;99.90;;;;;;2615068;54;20130;-75
2023/04/05 03:57:51;;;;;;;22.77;16.63;;;-1.00;99.90;;;;;;2615485;39;20540;-75
2023/04/05 04:03:39;;;;;;;27.07;19.37;;;-1.00;99.90;;;;;;2614848;54;20390;-75
2023/04/05 04:09:28;;;;;;;24.50;17.07;;;-1.00;99.90;;;;;;2614535;54;20134;-74
2023/04/05 04:15:17;;;;;;;24.60;16.97;;;-1.20;99.90;;;;;;2614745;54;20382;-74
2023/04/05 04:21:05;;;;;;;22.27;17.67;;;-1.20;99.90;;;;;;2615419;54;20374;-74
2023/04/05 04:24:18;;;;;;;22.63;18.30;;;-1.30;99.90;;;;;;2614952;54;20514;-75
2023/04/05 04:26:45;;;;;;;19.13;16.00;;;-1.40;99.90;;;;;;2615244;54;21166;-76
2023/04/05 04:38:43;;;;;;;21.13;16.23;;;-1.50;99.90;;;;;;2615233;54;20397;-75
2023/04/05 04:44:31;;;;;;;18.43;16.60;;;-1.50;99.90;;;;;;2614813;54;20354;-75
2023/04/05 04:50:19;;;;;;;18.70;16.10;;;-1.50;99.90;;;;;;2613857;46;20410;-74
2023/04/05 04:56:08;;;;;;;22.43;17.43;;;-1.60;99.90;;;;;;2614801;54;20395;-75
2023/04/05 05:01:55;;;;;;;23.63;16.73;;;-1.40;99.90;;;;;;2613392;54;20391;-76
2023/04/05 05:07:43;;;;;;;18.97;16.13;;;-1.60;99.90;;;;;;2612441;54;20131;-77
2023/04/05 05:13:31;;;;;;;21.03;16.90;;;-1.50;99.90;;;;;;2613670;54;20523;-75
2023/04/05 05:19:19;;;;;;;27.10;18.53;;;-1.30;99.90;;;;;;2613827;54;20693;-74
2023/04/05 05:28:50;;;;;;;33.83;21.47;;;-1.30;99.90;;;;;;2614582;54;20381;-72
2023/04/05 05:34:39;;;;;;;38.37;20.10;;;-1.10;99.90;;;;;;2613051;54;20338;-73
2023/04/05 05:40:27;;;;;;;42.20;23.70;;;-0.80;99.90;;;;;;2611894;54;20387;-73
2023/04/05 05:46:14;;;;;;;22.60;18.57;;;-0.30;99.90;;;;;;2612833;54;20745;-74
2023/04/05 05:52:03;;;;;;;22.70;18.17;;;0.30;99.90;;;;;;2613142;54;20400;-73
2023/04/05 05:57:51;;;;;;;20.33;18.17;;;1.40;99.90;;;;;;2608821;54;20386;-74
2023/04/05 06:03:39;;;;;;;20.83;18.73;;;2.00;99.90;;;;;;2611645;39;20824;-74
2023/04/05 06:09:27;;;;;;;23.30;20.83;;;2.60;99.90;;;;;;2611842;54;20157;-74
2023/04/05 06:15:15;;;;;;;22.50;20.13;;;2.40;99.90;;;;;;2613891;54;20402;-74
2023/04/05 06:21:03;;;;;;;24.23;21.27;;;2.70;99.90;;;;;;2612123;54;20207;-75
2023/04/05 06:24:18;;;;;;;27.00;20.93;;;3.00;99.90;;;;;;2611146;54;20403;-75
2023/04/05 06:26:44;;;;;;;21.83;19.47;;;3.50;99.90;;;;;;2612226;39;20324;-74
2023/04/05 06:32:31;;;;;;;24.57;21.97;;;4.00;99.90;;;;;;2612919;54;20170;-75
2023/04/05 06:38:19;;;;;;;24.37;21.87;;;4.80;93.70;;;;;;2613228;39;20565;-74
2023/04/05 06:44:07;;;;;;;25.43;22.50;;;4.70;81.30;;;;;;2614268;54;21083;-74
2023/04/05 06:49:54;;;;;;;24.87;22.43;;;5.60;62.90;;;;;;2612476;54;20174;-73
2023/04/05 06:55:47;;;;;;;24.97;22.53;;;6.20;56.30;;;;;;2613959;54;20129;-74
2023/04/05 07:01:35;;;;;;;26.50;24.03;;;6.50;51.00;;;;;;2612853;54;20414;-73
2023/04/05 07:07:23;;;;;;;27.57;24.80;;;6.60;47.30;;;;;;2614060;54;20122;-74
2023/04/05 07:13:10;;;;;;;26.70;24.40;;;6.80;43.20;;;;;;2613446;54;20169;-72
2023/04/05 07:18:58;;;;;;;31.00;26.90;;;7.10;36.60;;;;;;2611405;54;20142;-73
2023/04/05 07:28:45;;;;;;;26.77;24.37;;;7.90;32.60;;;;;;2613835;54;20494;-74
2023/04/05 07:34:34;;;;;;;27.17;24.77;;;8.30;28.00;;;;;;2613227;54;20383;-73
2023/04/05 07:40:22;;;;;;;26.10;23.93;;;8.50;27.30;;;;;;2613919;39;20825;-73
2023/04/05 07:46:10;;;;;;;25.00;22.97;;;8.30;23.70;;;;;;2613126;54;20174;-73
2023/04/05 07:51:58;;;;;;;26.87;24.23;;;9.10;22.70;;;;;;2613237;54;20134;-73
2023/04/05 07:57:46;;;;;;;24.40;22.50;;;8.20;20.60;;;;;;2614423;39;20770;-73
2023/04/05 08:03:51;;;;;;;22.27;20.57;;;8.50;15.50;;;;;;2611695;54;20159;-73
2023/04/05 08:09:38;;;;;;;21.17;19.77;;;9.70;9.40;;;;;;2612779;54;20151;-73
2023/04/05 08:15:25;;;;;;;20.60;19.10;;;9.30;2.70;;;;;;2612553;54;20244;-73
2023/04/05 08:21:12;;;;;;;21.20;19.80;;;9.20;1.00;;;;;;2614006;39;20847;-73
2023/04/05 08:24:15;;;;;;;20.20;18.90;;;10.00;1.00;;;;;;2611210;54;20412;-73
2023/04/05 08:26:42;;;;;;;20.67;19.17;;;10.40;1.00;;;;;;2611871;54;20202;-73
2023/04/05 08:32:30;;;;;;;22.23;20.30;;;10.80;1.00;;;;;;2610908;54;20383;-74
2023/04/05 08:38:18;;;;;;;20.80;19.47;;;11.40;1.00;;;;;;2614473;54;20394;-74
2023/04/05 08:44:09;;;;;;;22.17;20.30;;;10.50;1.00;;;;;;2614471;54;20247;-74
2023/04/05 08:49:56;;;;;;;21.60;20.20;;;11.00;1.00;;;;;;2611009;54;20530;-74
2023/04/05 08:55:50;;;;;;;19.63;18.50;;;11.10;1.00;;;;;;2613651;54;20493;-73
2023/04/05 09:01:42;;;;;;;21.03;19.73;;;11.10;1.00;;;;;;2612925;39;20515;-74
2023/04/05 09:07:30;;;;;;;20.67;18.80;;;11.00;1.00;;;;;;2612574;54;20431;-72
2023/04/05 09:13:19;;;;;;;22.57;20.87;;;11.40;1.00;;;;;;2612477;54;20138;-73
2023/04/05 09:19:07;;;;;;;21.63;20.23;;;11.00;1.00;;;;;;2614217;54;20415;-73
2023/04/05 09:28:51;;;;;;;19.40;18.20;;;11.50;1.00;;;;;;2612830;46;20382;-74
2023/04/05 09:34:41;;;;;;;20.13;18.93;;;12.10;1.00;;;;;;2610731;54;20407;-73
2023/04/05 09:51:28;;;;;;;19.80;18.60;;;11.00;1.00;;;;;;2613388;39;20739;-73
2023/04/05 09:57:17;;;;;;;20.43;19.13;;;11.70;1.00;;;;;;2613593;54;20426;-73
2023/04/05 10:03:05;;;;;;;21.40;19.60;;;12.60;1.00;;;;;;2612519;54;20391;-74
2023/04/05 10:08:52;;;;;;;20.77;19.37;;;11.70;1.00;;;;;;2612157;39;20551;-72
2023/04/05 10:14:40;;;;;;;19.53;18.13;;;12.70;1.00;;;;;;2612565;54;20150;-73
2023/04/05 10:20:31;;;;;;;20.07;18.60;;;13.60;1.00;;;;;;2611614;54;20138;-74
2023/04/05 10:45:41;;;;;;;19.97;18.73;;;13.00;1.00;;;;;;2610755;54;20438;-74
2023/04/05 10:51:28;;;;;;;20.63;19.07;;;12.70;1.00;;;;;;2611158;54;20387;-73
2023/04/05 10:57:18;;;;;;;21.03;19.10;;;12.90;1.00;;;;;;2611054;54;20423;-74
2023/04/05 11:03:06;;;;;;;20.30;19.03;;;12.60;1.00;;;;;;2612192;54;20403;-73
2023/04/05 11:15:26;;;;;;;19.33;18.30;;;13.40;1.00;;;;;;2610241;54;20395;-73
2023/04/05 11:21:20;;;;;;;19.40;18.30;;;13.70;1.00;;;;;;2608186;54;20980;-72
2023/04/05 11:24:20;;;;;;;21.13;19.77;;;14.80;1.00;;;;;;2608370;54;20447;-73
2023/04/05 11:26:45;;;;;;;19.00;17.90;;;13.60;1.00;;;;;;2608736;54;20408;-74
2023/04/05 11:32:43;;;;;;;18.47;17.50;;;13.80;1.00;;;;;;2612073;54;20158;-73
2023/04/05 11:38:30;;;;;;;19.07;17.70;;;13.70;1.00;;;;;;2607703;54;20411;-74
2023/04/05 11:44:18;;;;;;;18.37;17.37;;;14.00;1.00;;;;;;2606935;54;21035;-73
2023/04/05 11:50:08;;;;;;;18.90;17.70;;;14.00;1.00;;;;;;2609707;54;20410;-73
2023/04/05 12:02:33;;;;;;;19.67;18.37;;;13.90;1.00;;;;;;2608900;54;20426;-73
2023/04/05 12:08:22;;;;;;;20.53;18.97;;;14.00;1.00;;;;;;2609524;54;20394;-73
2023/04/05 12:14:10;;;;;;;18.80;17.47;;;14.10;1.00;;;;;;2609825;54;20367;-73
2023/04/05 12:19:58;;;;;;;19.37;18.37;;;13.40;1.00;;;;;;2609775;54;21414;-73
2023/04/05 12:29:07;;;;;;;18.77;17.67;;;13.90;1.00;;;;;;2610379;54;20422;-73
2023/04/05 12:34:56;;;;;;;18.50;17.30;;;13.90;1.00;;;;;;2611260;54;20154;-74
2023/04/05 12:40:44;;;;;;;19.03;17.93;;;15.40;1.00;;;;;;2613101;54;20396;-73
2023/04/05 12:53:05;;;;;;;18.70;17.70;;;15.10;1.00;;;;;;2610992;54;20535;-73
2023/04/05 12:58:53;;;;;;;19.93;18.63;;;13.00;1.00;;;;;;2613278;54;20363;-70
2023/04/05 13:04:41;;;;;;;18.40;17.40;;;14.60;1.00;;;;;;2612993;54;20139;-69
2023/04/05 13:10:29;;;;;;;19.30;18.00;;;14.70;1.00;;;;;;2611296;54;20134;-70
2023/04/05 13:16:17;;;;;;;20.97;19.57;;;14.10;1.00;;;;;;2612881;54;20134;-69
2023/04/05 13:22:05;;;;;;;19.47;18.07;;;14.70;1.00;;;;;;2611737;39;20938;-70
2023/04/05 13:24:39;;;;;;;19.70;18.20;;;14.60;1.00;;;;;;2610751;54;20408;-69
2023/04/05 13:27:05;;;;;;;21.10;19.70;;;13.50;1.00;;;;;;2611553;39;20566;-70
2023/04/05 13:32:52;;;;;;;21.57;19.97;;;16.00;1.00;;;;;;2612803;54;20161;-70
2023/04/05 13:38:40;;;;;;;19.20;18.20;;;15.50;1.00;;;;;;2613426;54;20130;-70
2023/04/05 13:44:28;;;;;;;20.13;17.80;;;15.40;1.00;;;;;;2613495;54;20644;-69
2023/04/05 13:50:15;;;;;;;18.33;17.23;;;15.00;1.00;;;;;;2612012;54;20131;-69
2023/04/05 13:56:03;;;;;;;19.70;18.23;;;16.60;1.00;;;;;;2613225;54;20672;-69
2023/04/05 14:01:51;;;;;;;19.13;18.03;;;16.10;1.00;;;;;;2612910;54;20835;-70
2023/04/05 14:07:39;;;;;;;18.57;17.37;;;16.70;1.00;;;;;;2609273;54;20395;-70
2023/04/05 14:13:26;;;;;;;19.00;17.63;;;16.10;1.00;;;;;;2611783;54;20278;-69
2023/04/05 14:19:15;;;;;;;18.67;17.37;;;16.00;1.00;;;;;;2612581;54;20126;-70
2023/04/05 14:29:09;;;;;;;20.90;19.70;;;14.10;1.00;;;;;;2612955;54;20503;-69
2023/04/05 14:34:56;;;;;;;21.53;20.20;;;14.80;1.00;;;;;;2614025;54;20407;-70
2023/04/05 14:40:46;;;;;;;21.40;19.83;;;14.80;1.00;;;;;;2614452;54;20166;-70
2023/04/05 14:46:33;;;;;;;18.73;17.73;;;13.70;1.00;;;;;;2614271;54;20407;-69
2023/04/05 14:52:21;;;;;;;19.03;17.93;;;13.30;1.00;;;;;;2613531;54;20125;-69
2023/04/05 14:58:10;;;;;;;19.73;18.50;;;14.50;1.00;;;;;;2614065;39;20543;-69
2023/04/05 15:03:57;;;;;;;19.63;18.37;;;13.60;1.00;;;;;;2612321;54;20443;-70
2023/04/05 15:09:45;;;;;;;18.93;17.73;;;13.10;1.00;;;;;;2613362;54;20697;-70
2023/04/05 15:15:33;;;;;;;18.47;17.27;;;14.00;1.00;;;;;;2613973;54;20178;-70
2023/04/05 15:21:21;;;;;;;18.33;17.20;;;13.50;1.00;;;;;;2613483;54;20148;-69
2023/04/05 15:27:19;;;;;;;19.93;18.43;;;13.80;1.00;;;;;;2612125;47;20418;-70
2023/04/05 15:33:06;;;;;;;19.00;17.80;;;13.90;1.00;;;;;;2612143;54;20163;-70
2023/04/05 15:38:54;;;;;;;17.73;16.83;;;14.40;1.00;;;;;;2612314;54;20745;-70
2023/04/05 15:48:05;;;;;;;18.80;17.60;;;14.50;1.00;;;;;;2612908;39;20795;-70
2023/04/05 15:53:52;;;;;;;19.57;18.17;;;13.50;1.00;;;;;;2611805;54;20418;-70
2023/04/05 15:59:39;;;;;;;18.67;17.57;;;14.20;1.00;;;;;;2612311;54;20757;-68
2023/04/05 16:05:27;;;;;;;17.17;16.17;;;14.30;1.00;;;;;;2609507;54;20130;-70
2023/04/05 16:11:14;;;;;;;19.20;18.10;;;14.20;1.00;;;;;;2613185;54;20127;-70
2023/04/05 16:17:02;;;;;;;18.43;17.10;;;13.70;1.00;;;;;;2613813;54;20163;-69
2023/04/05 16:22:50;;;;;;;17.57;16.40;;;13.70;1.00;;;;;;2613190;54;20750;-69
2023/04/05 16:32:00;;;;;;;18.07;16.97;;;13.50;1.00;;;;;;2606843;54;20446;-70
2023/04/05 16:37:47;;;;;;;19.30;17.83;;;14.30;1.00;;;;;;2611652;54;20443;-70
2023/04/05 16:43:35;;;;;;;18.40;17.10;;;14.40;1.00;;;;;;2612250;54;20122;-70
2023/04/05 16:49:23;;;;;;;19.40;18.27;;;14.10;1.00;;;;;;2612761;54;20250;-71
2023/04/05 16:55:11;;;;;;;19.90;18.60;;;13.70;1.00;;;;;;2612415;54;20126;-70
2023/04/05 17:00:59;;;;;;;19.10;17.80;;;13.50;1.00;;;;;;2611653;54;20170;-70
2023/04/05 17:06:47;;;;;;;19.40;18.20;;;13.10;1.00;;;;;;2612577;54;20126;-70
2023/04/05 17:12:36;;;;;;;19.17;17.97;;;12.60;1.00;;;;;;2612323;54;20138;-70
2023/04/05 17:18:23;;;;;;;22.20;20.33;;;11.60;1.00;;;;;;2613086;54;20487;-70
2023/04/05 17:24:11;;;;;;;18.30;17.27;;;10.80;1.00;;;;;;2613189;54;20138;-70
2023/04/05 17:27:21;;;;;;;17.87;16.77;;;10.70;1.00;;;;;;2612420;54;20997;-70
2023/04/05 17:29:48;;;;;;;19.03;17.83;;;10.60;1.00;;;;;;2611454;54;20161;-70
2023/04/05 17:35:36;;;;;;;19.47;18.17;;;10.50;1.00;;;;;;2610405;54;20420;-70
2023/04/05 17:41:24;;;;;;;21.23;19.80;;;10.10;1.00;;;;;;2613034;54;20917;-71
2023/04/05 17:47:12;;;;;;;21.20;19.70;;;10.00;1.00;;;;;;2614044;54;20147;-70
2023/04/05 17:53:00;;;;;;;20.87;19.30;;;9.80;1.00;;;;;;2611256;54;20142;-71
2023/04/05 17:58:47;;;;;;;21.50;19.63;;;9.60;1.00;;;;;;2609185;31;20592;-70
2023/04/05 18:04:39;;;;;;;20.00;18.17;;;9.30;1.00;;;;;;2609906;54;20126;-70
2023/04/05 18:10:27;;;;;;;20.63;19.03;;;9.00;1.00;;;;;;2609599;54;20747;-71
2023/04/05 18:16:15;;;;;;;19.63;18.20;;;8.90;1.00;;;;;;2612528;54;20147;-70
2023/04/05 18:22:03;;;;;;;20.77;18.83;;;8.60;1.00;;;;;;2612978;54;20143;-71
2023/04/05 18:31:53;;;;;;;19.07;17.70;;;8.30;1.00;;;;;;2613917;54;20367;-71
2023/04/05 18:37:41;;;;;;;20.40;18.93;;;8.30;1.00;;;;;;2613461;54;20407;-70
2023/04/05 18:43:29;;;;;;;19.70;18.30;;;8.20;1.00;;;;;;2613429;54;20539;-71
2023/04/05 18:49:17;;;;;;;21.17;19.47;;;8.00;1.00;;;;;;2612708;54;20411;-70
2023/04/05 18:55:06;;;;;;;21.60;20.10;;;7.60;1.00;;;;;;2612670;54;20995;-71
2023/04/05 19:00:54;;;;;;;21.93;20.33;;;7.30;1.00;;;;;;2613675;54;20968;-71
2023/04/05 19:06:42;;;;;;;21.10;19.50;;;7.10;1.00;;;;;;2611903;54;20127;-70
2023/04/05 19:12:29;;;;;;;21.70;20.10;;;6.80;1.00;;;;;;2613214;54;20194;-70
2023/04/05 19:18:19;;;;;;;31.20;27.20;;;6.40;1.00;;;;;;2613978;39;20559;-70
2023/04/05 19:24:08;;;;;;;29.60;26.80;;;6.20;1.00;;;;;;2613280;54;20514;-71
2023/04/05 19:27:21;;;;;;;25.23;22.90;;;6.20;3.50;;;;;;2610252;47;21251;-71
2023/04/05 19:29:47;;;;;;;25.70;23.37;;;6.10;4.70;;;;;;2612910;54;20531;-71
2023/04/05 19:35:35;;;;;;;27.80;25.13;;;5.80;4.60;;;;;;2614093;54;20708;-71
2023/04/05 19:41:24;;;;;;;25.80;23.37;;;5.50;9.00;;;;;;2613864;54;20388;-70
2023/04/05 19:47:12;;;;;;;23.63;21.80;;;5.50;15.60;;;;;;2613642;54;20370;-71
2023/04/05 19:53:00;;;;;;;27.40;23.83;;;5.20;19.20;;;;;;2613326;54;20412;-71
2023/04/05 19:58:54;;;;;;;30.03;24.50;;;5.30;19.40;;;;;;2614164;47;20143;-70
2023/04/05 20:04:43;;;;;;;25.17;23.00;;;5.30;21.80;;;;;;2613482;54;20758;-70
2023/04/05 20:17:05;;;;;;;23.40;21.50;;;4.90;29.10;;;;;;2614572;54;20416;-73
2023/04/05 20:22:53;;;;;;;25.90;23.37;;;4.60;31.50;;;;;;2607040;54;20395;-70
2023/04/05 20:32:09;;;;;;;25.10;22.87;;;4.40;34.10;;;;;;2613169;54;20399;-70
2023/04/05 20:37:56;;;;;;;25.97;23.67;;;4.40;38.40;;;;;;2613831;54;20390;-70
2023/04/05 20:43:44;;;;;;;24.70;22.70;;;4.30;46.00;;;;;;2614014;54;20122;-70
2023/04/05 20:49:32;;;;;;;26.20;23.70;;;4.00;50.60;;;;;;2613613;54;20378;-70
2023/04/05 20:55:20;;;;;;;24.23;22.13;;;3.90;57.10;;;;;;2611474;54;20126;-70
2023/04/05 21:01:08;;;;;;;24.70;22.40;;;3.80;59.70;;;;;;2611478;54;20138;-70
2023/04/05 21:06:56;;;;;;;24.60;21.60;;;3.80;73.30;;;;;;2613812;54;20363;-70
2023/04/05 21:12:44;;;;;;;23.63;21.30;;;3.60;75.90;;;;;;2611560;54;20339;-70
2023/04/05 21:18:32;;;;;;;24.03;21.90;;;3.60;83.50;;;;;;2610949;54;20652;-70
2023/04/05 21:24:20;;;;;;;23.50;21.67;;;3.40;87.20;;;;;;2610119;54;20147;-71
2023/04/05 21:27:36;;;;;;;25.60;23.17;;;3.30;90.10;;;;;;2610332;54;20391;-71
2023/04/05 21:30:02;;;;;;;23.70;21.47;;;3.40;91.70;;;;;;2609155;54;20770;-70
2023/04/05 21:35:50;;;;;;;24.67;22.27;;;3.30;97.60;;;;;;2611384;54;20362;-70
2023/04/05 21:41:38;;;;;;;23.53;21.27;;;3.30;96.90;;;;;;2610469;39;20526;-71
2023/04/05 21:47:25;;;;;;;22.90;21.10;;;3.20;96.80;;;;;;2608983;54;20647;-70
2023/04/05 21:53:13;;;;;;;24.67;22.47;;;3.20;94.30;;;;;;2610713;54;20146;-71
2023/04/05 21:59:01;;;;;;;24.53;22.20;;;2.90;97.40;;;;;;2611909;54;20139;-70
2023/04/05 22:04:49;;;;;;;23.90;22.00;;;2.70;99.90;;;;;;2610227;54;20133;-70
2023/04/05 22:10:37;;;;;;;24.40;22.17;;;2.60;99.90;;;;;;2611622;54;20158;-70
2023/04/05 22:16:25;;;;;;;24.27;21.87;;;2.70;99.90;;;;;;2610909;39;20553;-69
2023/04/05 22:22:13;;;;;;;21.87;19.73;;;2.50;99.90;;;;;;2612876;54;20252;-70
2023/04/05 22:32:07;;;;;;;23.80;21.50;;;2.40;99.90;;;;;;2613194;54;21007;-70
2023/04/05 22:35:10;;;;;;;20.97;19.27;;;2.40;99.90;;;;;;2613994;54;20419;-70
2023/04/05 22:37:37;;;;;;;20.53;18.33;;;2.20;99.90;;;;;;2609071;47;20418;-70
2023/04/05 22:43:24;;;;;;;23.03;20.80;;;2.10;99.90;;;;;;2610644;39;20849;-70
2023/04/05 22:49:12;;;;;;;21.17;19.43;;;2.00;99.90;;;;;;2610663;54;20126;-70
2023/04/05 22:55:00;;;;;;;22.27;20.20;;;1.90;99.90;;;;;;2610259;54;20146;-71
2023/04/05 23:00:47;;;;;;;21.70;19.50;;;1.80;99.90;;;;;;2609414;54;20168;-70
2023/04/05 23:06:35;;;;;;;24.07;21.87;;;1.80;99.90;;;;;;2611175;54;20134;-70
2023/04/05 23:12:23;;;;;;;22.13;19.93;;;1.80;99.90;;;;;;2610570;54;20219;-68
2023/04/05 23:18:11;;;;;;;23.27;21.07;;;2.00;99.90;;;;;;2611889;39;20486;-71
2023/04/05 23:23:59;;;;;;;23.97;21.50;;;2.00;99.90;;;;;;2609967;54;20165;-70
2023/04/05 23:29:46;;;;;;;23.03;21.03;;;1.80;99.90;;;;;;2614387;54;20526;-75
2023/04/05 23:35:34;;;;;;;23.27;20.90;;;1.50;99.90;;;;;;2614380;54;20134;-75
2023/04/05 23:41:22;;;;;;;24.03;21.87;;;1.40;99.90;;;;;;2614091;54;20657;-74
2023/04/05 23:47:10;;;;;;;24.63;21.80;;;1.40;99.90;;;;;;2610150;54;20163;-75
2023/04/05 23:52:59;;;;;;;25.00;22.30;;;1.40;99.90;;;;;;2610723;54;20411;-74
2023/04/05 23:58:46;;;;;;;24.00;21.80;;;1.10;99.90;;;;;;2612566;54;20906;-74
